sensor_id;sensor_type;location;lat;lon;timestamp;P1;durP1;ratioP1;P2;durP2;ratioP2
68196;SDS011;55019;49.382;11.358;2023-12-14T00:00:29;4.95;;;3.20;;
68196;SDS011;55019;49.382;11.358;2023-12-14T00:03:02;4.68;;;2.95;;
68196;SDS011;55019;49.382;11.358;2023-12-14T00:05:31;5.95;;;3.55;;
68196;SDS011;55019;49.382;11.358;2023-12-14T00:07:56;6.28;;;3.22;;
68196;SDS011;55019;49.382;11.358;2023-12-14T00:10:22;6.35;;;3.45;;
68196;SDS011;55019;49.382;11.358;2023-12-14T00:12:48;5.72;;;3.75;;
68196;SDS011;55019;49.382;11.358;2023-12-14T00:15:16;5.35;;;3.40;;
68196;SDS011;55019;49.382;11.358;2023-12-14T00:17:41;5.93;;;3.40;;
68196;SDS011;55019;49.382;11.358;2023-12-14T00:20:07;5.95;;;3.30;;
68196;SDS011;55019;49.382;11.358;2023-12-14T00:22:33;5.32;;;3.33;;
68196;SDS011;55019;49.382;11.358;2023-12-14T00:24:59;5.30;;;3.08;;
68196;SDS011;55019;49.382;11.358;2023-12-14T00:27:25;3.92;;;3.08;;
68196;SDS011;55019;49.382;11.358;2023-12-14T00:29:50;5.13;;;3.70;;
68196;SDS011;55019;49.382;11.358;2023-12-14T00:32:16;5.93;;;3.83;;
68196;SDS011;55019;49.382;11.358;2023-12-14T00:34:42;5.30;;;3.58;;
68196;SDS011;55019;49.382;11.358;2023-12-14T00:37:07;6.10;;;3.40;;
68196;SDS011;55019;49.382;11.358;2023-12-14T00:39:33;4.80;;;3.40;;
68196;SDS011;55019;49.382;11.358;2023-12-14T00:41:59;7.43;;;3.42;;
68196;SDS011;55019;49.382;11.358;2023-12-14T00:44:24;4.68;;;2.85;;
68196;SDS011;55019;49.382;11.358;2023-12-14T00:46:50;4.97;;;3.03;;
68196;SDS011;55019;49.382;11.358;2023-12-14T00:49:16;6.28;;;3.08;;
68196;SDS011;55019;49.382;11.358;2023-12-14T00:51:43;5.82;;;3.60;;
68196;SDS011;55019;49.382;11.358;2023-12-14T00:54:09;5.57;;;3.47;;
68196;SDS011;55019;49.382;11.358;2023-12-14T00:56:34;5.97;;;3.00;;
68196;SDS011;55019;49.382;11.358;2023-12-14T00:59:00;5.65;;;3.55;;
68196;SDS011;55019;49.382;11.358;2023-12-14T01:01:26;6.50;;;3.47;;
68196;SDS011;55019;49.382;11.358;2023-12-14T01:03:51;5.78;;;3.28;;
68196;SDS011;55019;49.382;11.358;2023-12-14T01:06:17;8.48;;;3.78;;
68196;SDS011;55019;49.382;11.358;2023-12-14T01:08:43;7.57;;;3.75;;
68196;SDS011;55019;49.382;11.358;2023-12-14T01:11:08;6.35;;;3.75;;
68196;SDS011;55019;49.382;11.358;2023-12-14T01:13:34;6.72;;;3.55;;
68196;SDS011;55019;49.382;11.358;2023-12-14T01:16:00;8.05;;;4.32;;
68196;SDS011;55019;49.382;11.358;2023-12-14T01:18:25;7.05;;;4.10;;
68196;SDS011;55019;49.382;11.358;2023-12-14T01:20:51;5.80;;;4.28;;
68196;SDS011;55019;49.382;11.358;2023-12-14T01:23:17;8.10;;;3.60;;
68196;SDS011;55019;49.382;11.358;2023-12-14T01:25:42;6.70;;;4.20;;
68196;SDS011;55019;49.382;11.358;2023-12-14T01:28:08;7.13;;;4.25;;
68196;SDS011;55019;49.382;11.358;2023-12-14T01:30:34;6.82;;;3.90;;
68196;SDS011;55019;49.382;11.358;2023-12-14T01:32:59;8.45;;;4.15;;
68196;SDS011;55019;49.382;11.358;2023-12-14T01:35:25;7.05;;;3.97;;
68196;SDS011;55019;49.382;11.358;2023-12-14T01:37:51;6.97;;;4.38;;
68196;SDS011;55019;49.382;11.358;2023-12-14T01:40:18;6.80;;;4.03;;
68196;SDS011;55019;49.382;11.358;2023-12-14T01:42:45;7.25;;;4.00;;
68196;SDS011;55019;49.382;11.358;2023-12-14T01:45:10;8.18;;;4.55;;
68196;SDS011;55019;49.382;11.358;2023-12-14T01:47:38;7.85;;;4.30;;
68196;SDS011;55019;49.382;11.358;2023-12-14T01:50:04;5.43;;;3.55;;
68196;SDS011;55019;49.382;11.358;2023-12-14T01:52:30;6.50;;;3.97;;
68196;SDS011;55019;49.382;11.358;2023-12-14T01:54:55;8.50;;;3.80;;
68196;SDS011;55019;49.382;11.358;2023-12-14T01:57:24;6.03;;;3.42;;
68196;SDS011;55019;49.382;11.358;2023-12-14T01:59:50;7.68;;;4.47;;
68196;SDS011;55019;49.382;11.358;2023-12-14T02:02:15;7.63;;;3.75;;
68196;SDS011;55019;49.382;11.358;2023-12-14T02:04:41;6.90;;;4.55;;
68196;SDS011;55019;49.382;11.358;2023-12-14T02:07:07;7.93;;;3.65;;
68196;SDS011;55019;49.382;11.358;2023-12-14T02:09:32;6.32;;;3.80;;
68196;SDS011;55019;49.382;11.358;2023-12-14T02:11:58;5.95;;;3.40;;
68196;SDS011;55019;49.382;11.358;2023-12-14T02:14:24;6.65;;;3.80;;
68196;SDS011;55019;49.382;11.358;2023-12-14T02:16:49;7.85;;;3.97;;
68196;SDS011;55019;49.382;11.358;2023-12-14T02:19:15;7.97;;;4.35;;
68196;SDS011;55019;49.382;11.358;2023-12-14T02:21:41;8.93;;;3.75;;
68196;SDS011;55019;49.382;11.358;2023-12-14T02:24:07;6.22;;;3.90;;
68196;SDS011;55019;49.382;11.358;2023-12-14T02:26:32;4.28;;;3.00;;
68196;SDS011;55019;49.382;11.358;2023-12-14T02:28:58;7.40;;;3.97;;
68196;SDS011;55019;49.382;11.358;2023-12-14T02:31:24;8.18;;;4.40;;
68196;SDS011;55019;49.382;11.358;2023-12-14T02:33:49;6.18;;;3.88;;
68196;SDS011;55019;49.382;11.358;2023-12-14T02:36:15;6.38;;;3.58;;
68196;SDS011;55019;49.382;11.358;2023-12-14T02:38:41;7.85;;;4.07;;
68196;SDS011;55019;49.382;11.358;2023-12-14T02:41:06;6.47;;;3.70;;
68196;SDS011;55019;49.382;11.358;2023-12-14T02:43:32;7.72;;;3.85;;
68196;SDS011;55019;49.382;11.358;2023-12-14T02:45:58;5.70;;;3.90;;
68196;SDS011;55019;49.382;11.358;2023-12-14T02:48:28;6.22;;;4.03;;
68196;SDS011;55019;49.382;11.358;2023-12-14T02:50:54;7.40;;;3.45;;
68196;SDS011;55019;49.382;11.358;2023-12-14T02:53:20;5.90;;;3.80;;
68196;SDS011;55019;49.382;11.358;2023-12-14T02:55:46;6.03;;;3.95;;
68196;SDS011;55019;49.382;11.358;2023-12-14T02:58:12;7.32;;;3.78;;
68196;SDS011;55019;49.382;11.358;2023-12-14T03:00:37;5.95;;;3.88;;
68196;SDS011;55019;49.382;11.358;2023-12-14T03:03:03;5.40;;;3.42;;
68196;SDS011;55019;49.382;11.358;2023-12-14T03:05:28;7.70;;;3.53;;
68196;SDS011;55019;49.382;11.358;2023-12-14T03:07:54;7.32;;;3.67;;
68196;SDS011;55019;49.382;11.358;2023-12-14T03:10:20;6.95;;;3.53;;
68196;SDS011;55019;49.382;11.358;2023-12-14T03:12:45;6.55;;;3.80;;
68196;SDS011;55019;49.382;11.358;2023-12-14T03:15:11;7.70;;;4.68;;
68196;SDS011;55019;49.382;11.358;2023-12-14T03:17:37;8.15;;;4.13;;
68196;SDS011;55019;49.382;11.358;2023-12-14T03:20:03;6.63;;;3.67;;
68196;SDS011;55019;49.382;11.358;2023-12-14T03:22:30;6.47;;;3.30;;
68196;SDS011;55019;49.382;11.358;2023-12-14T03:24:56;7.28;;;3.97;;
68196;SDS011;55019;49.382;11.358;2023-12-14T03:27:21;9.70;;;3.88;;
68196;SDS011;55019;49.382;11.358;2023-12-14T03:29:48;8.02;;;4.60;;
68196;SDS011;55019;49.382;11.358;2023-12-14T03:32:14;5.63;;;3.60;;
68196;SDS011;55019;49.382;11.358;2023-12-14T03:34:40;7.55;;;4.07;;
68196;SDS011;55019;49.382;11.358;2023-12-14T03:37:06;6.00;;;3.58;;
68196;SDS011;55019;49.382;11.358;2023-12-14T03:39:31;7.78;;;4.50;;
68196;SDS011;55019;49.382;11.358;2023-12-14T03:41:57;7.28;;;4.03;;
68196;SDS011;55019;49.382;11.358;2023-12-14T03:44:23;9.00;;;4.00;;
68196;SDS011;55019;49.382;11.358;2023-12-14T03:46:49;8.18;;;4.43;;
68196;SDS011;55019;49.382;11.358;2023-12-14T03:49:15;10.35;;;4.40;;
68196;SDS011;55019;49.382;11.358;2023-12-14T03:51:41;7.35;;;3.83;;
68196;SDS011;55019;49.382;11.358;2023-12-14T03:54:06;6.35;;;3.70;;
68196;SDS011;55019;49.382;11.358;2023-12-14T03:56:32;6.75;;;3.90;;
68196;SDS011;55019;49.382;11.358;2023-12-14T03:58:58;5.95;;;3.65;;
68196;SDS011;55019;49.382;11.358;2023-12-14T04:01:23;6.75;;;4.13;;
68196;SDS011;55019;49.382;11.358;2023-12-14T04:03:49;8.07;;;4.32;;
68196;SDS011;55019;49.382;11.358;2023-12-14T04:06:15;7.70;;;3.42;;
68196;SDS011;55019;49.382;11.358;2023-12-14T04:08:41;7.03;;;3.70;;
68196;SDS011;55019;49.382;11.358;2023-12-14T04:11:07;8.27;;;3.97;;
68196;SDS011;55019;49.382;11.358;2023-12-14T04:13:33;8.00;;;3.88;;
68196;SDS011;55019;49.382;11.358;2023-12-14T04:15:59;6.40;;;3.67;;
68196;SDS011;55019;49.382;11.358;2023-12-14T04:18:25;8.18;;;4.50;;
68196;SDS011;55019;49.382;11.358;2023-12-14T04:20:51;7.57;;;4.22;;
68196;SDS011;55019;49.382;11.358;2023-12-14T04:23:16;7.32;;;4.75;;
68196;SDS011;55019;49.382;11.358;2023-12-14T04:25:43;8.40;;;4.32;;
68196;SDS011;55019;49.382;11.358;2023-12-14T04:28:09;6.78;;;3.75;;
68196;SDS011;55019;49.382;11.358;2023-12-14T04:30:34;8.18;;;3.85;;
68196;SDS011;55019;49.382;11.358;2023-12-14T04:33:00;9.90;;;4.82;;
68196;SDS011;55019;49.382;11.358;2023-12-14T04:35:26;7.63;;;4.40;;
68196;SDS011;55019;49.382;11.358;2023-12-14T04:37:51;8.50;;;5.10;;
68196;SDS011;55019;49.382;11.358;2023-12-14T04:40:17;8.85;;;4.20;;
68196;SDS011;55019;49.382;11.358;2023-12-14T04:42:44;7.75;;;4.28;;
68196;SDS011;55019;49.382;11.358;2023-12-14T04:45:10;8.43;;;4.28;;
68196;SDS011;55019;49.382;11.358;2023-12-14T04:47:36;7.68;;;4.25;;
68196;SDS011;55019;49.382;11.358;2023-12-14T04:50:02;8.80;;;4.00;;
68196;SDS011;55019;49.382;11.358;2023-12-14T04:52:28;7.40;;;4.25;;
68196;SDS011;55019;49.382;11.358;2023-12-14T04:54:54;10.52;;;4.88;;
68196;SDS011;55019;49.382;11.358;2023-12-14T04:57:20;9.15;;;4.88;;
68196;SDS011;55019;49.382;11.358;2023-12-14T04:59:45;8.27;;;4.43;;
68196;SDS011;55019;49.382;11.358;2023-12-14T05:02:11;8.55;;;4.60;;
68196;SDS011;55019;49.382;11.358;2023-12-14T05:04:37;10.13;;;4.40;;
68196;SDS011;55019;49.382;11.358;2023-12-14T05:07:02;9.00;;;4.35;;
68196;SDS011;55019;49.382;11.358;2023-12-14T05:09:28;10.73;;;5.60;;
68196;SDS011;55019;49.382;11.358;2023-12-14T05:11:54;9.70;;;4.95;;
68196;SDS011;55019;49.382;11.358;2023-12-14T05:14:19;10.25;;;4.88;;
68196;SDS011;55019;49.382;11.358;2023-12-14T05:16:45;10.23;;;5.13;;
68196;SDS011;55019;49.382;11.358;2023-12-14T05:19:11;10.57;;;5.75;;
68196;SDS011;55019;49.382;11.358;2023-12-14T05:21:38;9.18;;;4.78;;
68196;SDS011;55019;49.382;11.358;2023-12-14T05:24:04;9.20;;;4.78;;
68196;SDS011;55019;49.382;11.358;2023-12-14T05:26:30;11.45;;;5.07;;
68196;SDS011;55019;49.382;11.358;2023-12-14T05:28:55;13.30;;;6.00;;
68196;SDS011;55019;49.382;11.358;2023-12-14T05:31:21;11.00;;;4.90;;
68196;SDS011;55019;49.382;11.358;2023-12-14T05:33:47;9.57;;;4.88;;
68196;SDS011;55019;49.382;11.358;2023-12-14T05:36:13;9.35;;;4.63;;
68196;SDS011;55019;49.382;11.358;2023-12-14T05:38:39;10.35;;;5.00;;
68196;SDS011;55019;49.382;11.358;2023-12-14T05:41:06;11.70;;;5.10;;
68196;SDS011;55019;49.382;11.358;2023-12-14T05:43:32;12.88;;;5.75;;
68196;SDS011;55019;49.382;11.358;2023-12-14T05:45:57;12.35;;;5.63;;
68196;SDS011;55019;49.382;11.358;2023-12-14T05:48:23;11.38;;;5.28;;
68196;SDS011;55019;49.382;11.358;2023-12-14T05:50:51;15.20;;;5.82;;
68196;SDS011;55019;49.382;11.358;2023-12-14T05:53:16;12.77;;;5.30;;
68196;SDS011;55019;49.382;11.358;2023-12-14T05:55:43;12.80;;;5.38;;
68196;SDS011;55019;49.382;11.358;2023-12-14T05:58:09;10.55;;;5.07;;
68196;SDS011;55019;49.382;11.358;2023-12-14T06:00:35;12.23;;;6.18;;
68196;SDS011;55019;49.382;11.358;2023-12-14T06:03:01;12.32;;;5.18;;
68196;SDS011;55019;49.382;11.358;2023-12-14T06:05:28;9.63;;;4.97;;
68196;SDS011;55019;49.382;11.358;2023-12-14T06:07:54;11.65;;;4.82;;
68196;SDS011;55019;49.382;11.358;2023-12-14T06:10:19;10.70;;;5.40;;
68196;SDS011;55019;49.382;11.358;2023-12-14T06:12:46;10.10;;;5.00;;
68196;SDS011;55019;49.382;11.358;2023-12-14T06:15:12;10.07;;;4.88;;
68196;SDS011;55019;49.382;11.358;2023-12-14T06:17:38;10.85;;;5.53;;
68196;SDS011;55019;49.382;11.358;2023-12-14T06:20:06;10.77;;;5.35;;
68196;SDS011;55019;49.382;11.358;2023-12-14T06:22:38;11.45;;;5.78;;
68196;SDS011;55019;49.382;11.358;2023-12-14T06:25:04;11.27;;;5.00;;
68196;SDS011;55019;49.382;11.358;2023-12-14T06:27:31;10.80;;;4.72;;
68196;SDS011;55019;49.382;11.358;2023-12-14T06:29:56;9.82;;;4.75;;
68196;SDS011;55019;49.382;11.358;2023-12-14T06:32:22;8.00;;;4.45;;
68196;SDS011;55019;49.382;11.358;2023-12-14T06:34:48;9.68;;;5.20;;
68196;SDS011;55019;49.382;11.358;2023-12-14T06:37:13;10.07;;;4.75;;
68196;SDS011;55019;49.382;11.358;2023-12-14T06:39:42;8.27;;;4.20;;
68196;SDS011;55019;49.382;11.358;2023-12-14T06:42:08;8.23;;;4.43;;
68196;SDS011;55019;49.382;11.358;2023-12-14T06:44:33;11.10;;;5.05;;
68196;SDS011;55019;49.382;11.358;2023-12-14T06:46:59;10.50;;;4.95;;
68196;SDS011;55019;49.382;11.358;2023-12-14T06:49:25;11.60;;;4.72;;
68196;SDS011;55019;49.382;11.358;2023-12-14T06:51:51;11.32;;;4.80;;
68196;SDS011;55019;49.382;11.358;2023-12-14T06:54:17;9.02;;;5.10;;
68196;SDS011;55019;49.382;11.358;2023-12-14T06:56:42;10.93;;;5.10;;
68196;SDS011;55019;49.382;11.358;2023-12-14T06:59:08;9.93;;;5.45;;
68196;SDS011;55019;49.382;11.358;2023-12-14T07:01:34;12.90;;;5.40;;
68196;SDS011;55019;49.382;11.358;2023-12-14T07:04:00;10.10;;;5.18;;
68196;SDS011;55019;49.382;11.358;2023-12-14T07:06:25;8.95;;;4.43;;
68196;SDS011;55019;49.382;11.358;2023-12-14T07:08:51;11.93;;;6.07;;
68196;SDS011;55019;49.382;11.358;2023-12-14T07:11:17;11.07;;;5.40;;
68196;SDS011;55019;49.382;11.358;2023-12-14T07:13:43;12.50;;;5.50;;
68196;SDS011;55019;49.382;11.358;2023-12-14T07:16:09;11.20;;;5.22;;
68196;SDS011;55019;49.382;11.358;2023-12-14T07:18:36;11.00;;;4.97;;
68196;SDS011;55019;49.382;11.358;2023-12-14T07:21:03;11.32;;;4.85;;
68196;SDS011;55019;49.382;11.358;2023-12-14T07:23:29;11.35;;;4.85;;
68196;SDS011;55019;49.382;11.358;2023-12-14T07:25:55;10.05;;;4.35;;
68196;SDS011;55019;49.382;11.358;2023-12-14T07:28:21;10.23;;;4.88;;
68196;SDS011;55019;49.382;11.358;2023-12-14T07:30:47;9.95;;;4.60;;
68196;SDS011;55019;49.382;11.358;2023-12-14T07:33:14;14.38;;;5.82;;
68196;SDS011;55019;49.382;11.358;2023-12-14T07:35:40;10.07;;;5.28;;
68196;SDS011;55019;49.382;11.358;2023-12-14T07:38:06;10.88;;;5.20;;
68196;SDS011;55019;49.382;11.358;2023-12-14T07:40:31;12.52;;;5.60;;
68196;SDS011;55019;49.382;11.358;2023-12-14T07:42:57;9.57;;;5.28;;
68196;SDS011;55019;49.382;11.358;2023-12-14T07:45:23;13.23;;;5.53;;
68196;SDS011;55019;49.382;11.358;2023-12-14T07:47:49;13.05;;;5.07;;
68196;SDS011;55019;49.382;11.358;2023-12-14T07:50:14;11.73;;;5.63;;
68196;SDS011;55019;49.382;11.358;2023-12-14T07:52:40;10.70;;;5.22;;
68196;SDS011;55019;49.382;11.358;2023-12-14T07:55:06;12.02;;;5.28;;
68196;SDS011;55019;49.382;11.358;2023-12-14T07:57:32;14.93;;;7.10;;
68196;SDS011;55019;49.382;11.358;2023-12-14T07:59:58;11.98;;;5.80;;
68196;SDS011;55019;49.382;11.358;2023-12-14T08:02:24;12.60;;;5.32;;
68196;SDS011;55019;49.382;11.358;2023-12-14T08:04:50;13.65;;;7.18;;
68196;SDS011;55019;49.382;11.358;2023-12-14T08:07:15;12.70;;;5.72;;
68196;SDS011;55019;49.382;11.358;2023-12-14T08:09:41;11.65;;;5.60;;
68196;SDS011;55019;49.382;11.358;2023-12-14T08:12:06;14.10;;;5.78;;
68196;SDS011;55019;49.382;11.358;2023-12-14T08:14:33;15.80;;;6.38;;
68196;SDS011;55019;49.382;11.358;2023-12-14T08:17:08;13.30;;;5.80;;
68196;SDS011;55019;49.382;11.358;2023-12-14T08:19:35;12.68;;;6.25;;
68196;SDS011;55019;49.382;11.358;2023-12-14T08:22:00;14.63;;;6.60;;
68196;SDS011;55019;49.382;11.358;2023-12-14T08:24:26;14.30;;;6.32;;
68196;SDS011;55019;49.382;11.358;2023-12-14T08:26:52;12.77;;;6.93;;
68196;SDS011;55019;49.382;11.358;2023-12-14T08:29:18;15.65;;;6.78;;
68196;SDS011;55019;49.382;11.358;2023-12-14T08:31:43;15.98;;;6.78;;
68196;SDS011;55019;49.382;11.358;2023-12-14T08:34:09;17.08;;;7.43;;
68196;SDS011;55019;49.382;11.358;2023-12-14T08:36:35;12.75;;;5.85;;
68196;SDS011;55019;49.382;11.358;2023-12-14T08:39:00;15.35;;;6.00;;
68196;SDS011;55019;49.382;11.358;2023-12-14T08:41:26;18.15;;;7.20;;
68196;SDS011;55019;49.382;11.358;2023-12-14T08:43:52;15.88;;;7.30;;
68196;SDS011;55019;49.382;11.358;2023-12-14T08:46:19;15.40;;;7.10;;
68196;SDS011;55019;49.382;11.358;2023-12-14T08:48:44;13.70;;;6.53;;
68196;SDS011;55019;49.382;11.358;2023-12-14T08:51:10;17.27;;;7.25;;
68196;SDS011;55019;49.382;11.358;2023-12-14T08:53:36;18.00;;;7.80;;
68196;SDS011;55019;49.382;11.358;2023-12-14T08:56:02;16.95;;;7.50;;
68196;SDS011;55019;49.382;11.358;2023-12-14T08:58:28;17.75;;;7.57;;
68196;SDS011;55019;49.382;11.358;2023-12-14T09:00:54;13.77;;;6.45;;
68196;SDS011;55019;49.382;11.358;2023-12-14T09:03:20;16.33;;;7.35;;
68196;SDS011;55019;49.382;11.358;2023-12-14T09:05:46;18.50;;;7.72;;
68196;SDS011;55019;49.382;11.358;2023-12-14T09:08:12;15.13;;;6.72;;
68196;SDS011;55019;49.382;11.358;2023-12-14T09:10:38;15.13;;;6.72;;
68196;SDS011;55019;49.382;11.358;2023-12-14T09:13:04;14.93;;;6.78;;
68196;SDS011;55019;49.382;11.358;2023-12-14T09:15:33;15.15;;;6.75;;
68196;SDS011;55019;49.382;11.358;2023-12-14T09:17:59;16.58;;;6.50;;
68196;SDS011;55019;49.382;11.358;2023-12-14T09:20:25;12.80;;;6.32;;
68196;SDS011;55019;49.382;11.358;2023-12-14T09:22:51;16.95;;;7.60;;
68196;SDS011;55019;49.382;11.358;2023-12-14T09:25:18;12.25;;;5.93;;
68196;SDS011;55019;49.382;11.358;2023-12-14T09:27:44;14.27;;;5.85;;
68196;SDS011;55019;49.382;11.358;2023-12-14T09:30:10;12.35;;;5.93;;
68196;SDS011;55019;49.382;11.358;2023-12-14T09:32:36;13.75;;;6.55;;
68196;SDS011;55019;49.382;11.358;2023-12-14T09:35:02;15.40;;;7.50;;
68196;SDS011;55019;49.382;11.358;2023-12-14T09:37:28;12.73;;;6.20;;
68196;SDS011;55019;49.382;11.358;2023-12-14T09:39:53;13.90;;;6.20;;
68196;SDS011;55019;49.382;11.358;2023-12-14T09:42:20;11.55;;;5.90;;
68196;SDS011;55019;49.382;11.358;2023-12-14T09:44:50;13.95;;;6.20;;
68196;SDS011;55019;49.382;11.358;2023-12-14T09:47:17;14.25;;;5.13;;
68196;SDS011;55019;49.382;11.358;2023-12-14T09:52:11;12.00;;;5.50;;
68196;SDS011;55019;49.382;11.358;2023-12-14T09:54:37;10.50;;;4.90;;
68196;SDS011;55019;49.382;11.358;2023-12-14T09:57:03;10.63;;;5.30;;
68196;SDS011;55019;49.382;11.358;2023-12-14T09:59:29;12.00;;;6.40;;
68196;SDS011;55019;49.382;11.358;2023-12-14T10:02:10;9.85;;;5.65;;
68196;SDS011;55019;49.382;11.358;2023-12-14T10:04:37;11.55;;;5.97;;
68196;SDS011;55019;49.382;11.358;2023-12-14T10:07:03;11.35;;;5.68;;
68196;SDS011;55019;49.382;11.358;2023-12-14T10:09:36;11.88;;;5.25;;
68196;SDS011;55019;49.382;11.358;2023-12-14T10:12:03;13.40;;;7.03;;
68196;SDS011;55019;49.382;11.358;2023-12-14T10:14:31;11.75;;;6.03;;
68196;SDS011;55019;49.382;11.358;2023-12-14T10:16:57;12.10;;;5.70;;
68196;SDS011;55019;49.382;11.358;2023-12-14T10:19:23;12.00;;;6.00;;
68196;SDS011;55019;49.382;11.358;2023-12-14T10:21:49;12.25;;;5.93;;
68196;SDS011;55019;49.382;11.358;2023-12-14T10:24:16;11.20;;;5.82;;
68196;SDS011;55019;49.382;11.358;2023-12-14T10:26:45;13.90;;;6.78;;
68196;SDS011;55019;49.382;11.358;2023-12-14T10:29:11;14.07;;;6.43;;
68196;SDS011;55019;49.382;11.358;2023-12-14T10:31:37;11.93;;;5.85;;
68196;SDS011;55019;49.382;11.358;2023-12-14T10:34:03;12.88;;;5.50;;
68196;SDS011;55019;49.382;11.358;2023-12-14T10:36:30;8.38;;;5.05;;
68196;SDS011;55019;49.382;11.358;2023-12-14T10:38:57;9.35;;;4.82;;
68196;SDS011;55019;49.382;11.358;2023-12-14T10:41:24;11.68;;;5.63;;
68196;SDS011;55019;49.382;11.358;2023-12-14T10:43:53;12.32;;;5.53;;
68196;SDS011;55019;49.382;11.358;2023-12-14T10:46:20;11.10;;;5.45;;
68196;SDS011;55019;49.382;11.358;2023-12-14T10:48:49;9.50;;;4.75;;
68196;SDS011;55019;49.382;11.358;2023-12-14T10:51:20;10.68;;;5.13;;
68196;SDS011;55019;49.382;11.358;2023-12-14T10:53:47;9.68;;;4.85;;
68196;SDS011;55019;49.382;11.358;2023-12-14T10:56:15;9.93;;;5.15;;
68196;SDS011;55019;49.382;11.358;2023-12-14T10:58:46;10.60;;;4.88;;
68196;SDS011;55019;49.382;11.358;2023-12-14T11:01:16;9.90;;;5.10;;
68196;SDS011;55019;49.382;11.358;2023-12-14T11:03:42;10.07;;;4.35;;
68196;SDS011;55019;49.382;11.358;2023-12-14T11:06:20;11.60;;;5.10;;
68196;SDS011;55019;49.382;11.358;2023-12-14T11:08:47;9.18;;;4.88;;
68196;SDS011;55019;49.382;11.358;2023-12-14T11:11:13;9.20;;;4.57;;
68196;SDS011;55019;49.382;11.358;2023-12-14T11:13:46;9.30;;;4.88;;
68196;SDS011;55019;49.382;11.358;2023-12-14T11:16:15;8.80;;;4.47;;
68196;SDS011;55019;49.382;11.358;2023-12-14T11:18:41;9.25;;;4.70;;
68196;SDS011;55019;49.382;11.358;2023-12-14T11:21:06;9.93;;;4.60;;
68196;SDS011;55019;49.382;11.358;2023-12-14T11:23:33;8.88;;;4.43;;
68196;SDS011;55019;49.382;11.358;2023-12-14T11:28:35;10.02;;;4.57;;
68196;SDS011;55019;49.382;11.358;2023-12-14T11:31:02;9.85;;;5.15;;
68196;SDS011;55019;49.382;11.358;2023-12-14T11:33:32;8.07;;;4.45;;
68196;SDS011;55019;49.382;11.358;2023-12-14T11:35:59;10.13;;;4.80;;
68196;SDS011;55019;49.382;11.358;2023-12-14T11:38:26;9.07;;;4.72;;
68196;SDS011;55019;49.382;11.358;2023-12-14T11:40:52;10.18;;;5.22;;
68196;SDS011;55019;49.382;11.358;2023-12-14T11:43:18;9.13;;;4.43;;
68196;SDS011;55019;49.382;11.358;2023-12-14T11:48:11;9.18;;;4.07;;
68196;SDS011;55019;49.382;11.358;2023-12-14T11:50:38;8.30;;;4.25;;
68196;SDS011;55019;49.382;11.358;2023-12-14T11:53:05;9.45;;;4.95;;
68196;SDS011;55019;49.382;11.358;2023-12-14T11:55:31;8.88;;;5.00;;
68196;SDS011;55019;49.382;11.358;2023-12-14T12:00:25;6.32;;;4.18;;
68196;SDS011;55019;49.382;11.358;2023-12-14T12:02:52;11.27;;;4.70;;
68196;SDS011;55019;49.382;11.358;2023-12-14T12:05:38;11.02;;;5.07;;
68196;SDS011;55019;49.382;11.358;2023-12-14T12:08:09;9.45;;;4.53;;
68196;SDS011;55019;49.382;11.358;2023-12-14T12:10:36;9.40;;;4.43;;
68196;SDS011;55019;49.382;11.358;2023-12-14T12:13:18;9.45;;;4.40;;
68196;SDS011;55019;49.382;11.358;2023-12-14T12:15:45;9.90;;;4.95;;
68196;SDS011;55019;49.382;11.358;2023-12-14T12:18:12;10.00;;;5.30;;
68196;SDS011;55019;49.382;11.358;2023-12-14T12:20:39;9.93;;;5.07;;
68196;SDS011;55019;49.382;11.358;2023-12-14T12:23:05;8.43;;;4.68;;
68196;SDS011;55019;49.382;11.358;2023-12-14T12:25:32;9.45;;;4.68;;
68196;SDS011;55019;49.382;11.358;2023-12-14T12:27:58;11.63;;;6.03;;
68196;SDS011;55019;49.382;11.358;2023-12-14T12:30:25;10.40;;;5.18;;
68196;SDS011;55019;49.382;11.358;2023-12-14T12:32:50;9.93;;;4.90;;
68196;SDS011;55019;49.382;11.358;2023-12-14T12:35:20;8.57;;;4.60;;
68196;SDS011;55019;49.382;11.358;2023-12-14T12:37:46;10.85;;;4.78;;
68196;SDS011;55019;49.382;11.358;2023-12-14T12:40:12;10.00;;;4.85;;
68196;SDS011;55019;49.382;11.358;2023-12-14T12:42:38;9.05;;;5.28;;
68196;SDS011;55019;49.382;11.358;2023-12-14T12:45:04;12.98;;;5.70;;
68196;SDS011;55019;49.382;11.358;2023-12-14T12:47:31;9.27;;;4.95;;
68196;SDS011;55019;49.382;11.358;2023-12-14T12:49:56;10.98;;;5.53;;
68196;SDS011;55019;49.382;11.358;2023-12-14T12:52:22;11.63;;;5.00;;
68196;SDS011;55019;49.382;11.358;2023-12-14T12:54:48;9.77;;;4.75;;
68196;SDS011;55019;49.382;11.358;2023-12-14T12:57:13;8.93;;;4.70;;
68196;SDS011;55019;49.382;11.358;2023-12-14T12:59:39;8.85;;;4.57;;
68196;SDS011;55019;49.382;11.358;2023-12-14T13:02:05;8.20;;;4.78;;
68196;SDS011;55019;49.382;11.358;2023-12-14T13:04:31;8.75;;;4.60;;
68196;SDS011;55019;49.382;11.358;2023-12-14T13:06:57;7.95;;;4.70;;
68196;SDS011;55019;49.382;11.358;2023-12-14T13:09:23;13.27;;;5.15;;
68196;SDS011;55019;49.382;11.358;2023-12-14T13:11:48;8.68;;;4.47;;
68196;SDS011;55019;49.382;11.358;2023-12-14T13:14:15;7.65;;;3.55;;
68196;SDS011;55019;49.382;11.358;2023-12-14T13:16:41;7.30;;;4.03;;
68196;SDS011;55019;49.382;11.358;2023-12-14T13:19:08;10.15;;;4.80;;
68196;SDS011;55019;49.382;11.358;2023-12-14T13:21:35;7.40;;;4.30;;
68196;SDS011;55019;49.382;11.358;2023-12-14T13:24:01;7.63;;;3.83;;
68196;SDS011;55019;49.382;11.358;2023-12-14T13:26:28;8.20;;;4.20;;
68196;SDS011;55019;49.382;11.358;2023-12-14T13:28:54;9.13;;;4.63;;
68196;SDS011;55019;49.382;11.358;2023-12-14T13:31:20;4.78;;;3.05;;
68196;SDS011;55019;49.382;11.358;2023-12-14T13:33:46;5.85;;;3.72;;
68196;SDS011;55019;49.382;11.358;2023-12-14T13:36:13;6.35;;;3.72;;
68196;SDS011;55019;49.382;11.358;2023-12-14T13:38:40;6.43;;;3.67;;
68196;SDS011;55019;49.382;11.358;2023-12-14T13:41:09;6.40;;;3.47;;
68196;SDS011;55019;49.382;11.358;2023-12-14T13:43:35;5.93;;;3.83;;
68196;SDS011;55019;49.382;11.358;2023-12-14T13:46:00;5.72;;;4.20;;
68196;SDS011;55019;49.382;11.358;2023-12-14T13:48:27;8.02;;;3.63;;
68196;SDS011;55019;49.382;11.358;2023-12-14T13:50:54;7.05;;;3.65;;
68196;SDS011;55019;49.382;11.358;2023-12-14T13:53:20;7.05;;;4.30;;
68196;SDS011;55019;49.382;11.358;2023-12-14T13:55:47;7.57;;;4.38;;
68196;SDS011;55019;49.382;11.358;2023-12-14T13:58:14;9.32;;;4.63;;
68196;SDS011;55019;49.382;11.358;2023-12-14T14:00:40;8.90;;;4.75;;
68196;SDS011;55019;49.382;11.358;2023-12-14T14:03:06;8.65;;;4.40;;
68196;SDS011;55019;49.382;11.358;2023-12-14T14:05:32;8.45;;;4.05;;
68196;SDS011;55019;49.382;11.358;2023-12-14T14:07:58;8.38;;;4.88;;
68196;SDS011;55019;49.382;11.358;2023-12-14T14:10:24;7.60;;;4.28;;
68196;SDS011;55019;49.382;11.358;2023-12-14T14:12:50;10.02;;;4.45;;
68196;SDS011;55019;49.382;11.358;2023-12-14T14:15:16;9.52;;;4.25;;
68196;SDS011;55019;49.382;11.358;2023-12-14T14:17:42;10.48;;;4.97;;
68196;SDS011;55019;49.382;11.358;2023-12-14T14:20:08;10.60;;;4.35;;
68196;SDS011;55019;49.382;11.358;2023-12-14T14:22:38;10.32;;;4.90;;
68196;SDS011;55019;49.382;11.358;2023-12-14T14:25:04;8.32;;;4.47;;
68196;SDS011;55019;49.382;11.358;2023-12-14T14:27:32;8.23;;;4.35;;
68196;SDS011;55019;49.382;11.358;2023-12-14T14:30:00;8.55;;;3.42;;
68196;SDS011;55019;49.382;11.358;2023-12-14T14:32:27;5.28;;;2.75;;